sensor_id;sensor_type;location;lat;lon;timestamp;P1;durP1;ratioP1;P2;durP2;ratioP2
46729;SDS011;32476;50.002;11.854;2022-10-16T00:01:29;2.70;;;1.60;;
46729;SDS011;32476;50.002;11.854;2022-10-16T00:03:57;2.60;;;1.70;;
46729;SDS011;32476;50.002;11.854;2022-10-16T00:06:26;2.17;;;1.33;;
46729;SDS011;32476;50.002;11.854;2022-10-16T00:08:54;1.97;;;1.40;;
46729;SDS011;32476;50.002;11.854;2022-10-16T00:11:22;2.73;;;1.23;;
46729;SDS011;32476;50.002;11.854;2022-10-16T00:13:58;1.43;;;1.30;;
46729;SDS011;32476;50.002;11.854;2022-10-16T00:16:26;3.00;;;1.40;;
46729;SDS011;32476;50.002;11.854;2022-10-16T00:18:55;1.90;;;1.33;;
46729;SDS011;32476;50.002;11.854;2022-10-16T00:21:23;4.23;;;1.50;;
46729;SDS011;32476;50.002;11.854;2022-10-16T00:23:58;2.70;;;1.50;;
46729;SDS011;32476;50.002;11.854;2022-10-16T00:26:33;2.53;;;1.50;;
46729;SDS011;32476;50.002;11.854;2022-10-16T00:29:00;2.20;;;1.27;;
46729;SDS011;32476;50.002;11.854;2022-10-16T00:31:27;1.40;;;1.20;;
46729;SDS011;32476;50.002;11.854;2022-10-16T00:33:56;1.60;;;1.17;;
46729;SDS011;32476;50.002;11.854;2022-10-16T00:36:23;1.70;;;0.80;;
46729;SDS011;32476;50.002;11.854;2022-10-16T00:38:51;0.90;;;0.87;;
46729;SDS011;32476;50.002;11.854;2022-10-16T00:41:24;0.63;;;0.63;;
46729;SDS011;32476;50.002;11.854;2022-10-16T00:43:54;3.30;;;0.80;;
46729;SDS011;32476;50.002;11.854;2022-10-16T00:48:59;0.90;;;0.70;;
46729;SDS011;32476;50.002;11.854;2022-10-16T00:51:46;0.93;;;0.80;;
46729;SDS011;32476;50.002;11.854;2022-10-16T00:54:29;2.23;;;1.20;;
46729;SDS011;32476;50.002;11.854;2022-10-16T00:56:59;1.87;;;1.17;;
46729;SDS011;32476;50.002;11.854;2022-10-16T00:59:33;1.63;;;1.40;;
46729;SDS011;32476;50.002;11.854;2022-10-16T01:02:05;1.77;;;1.23;;
46729;SDS011;32476;50.002;11.854;2022-10-16T01:04:41;1.43;;;1.33;;
46729;SDS011;32476;50.002;11.854;2022-10-16T01:07:20;3.23;;;1.67;;
46729;SDS011;32476;50.002;11.854;2022-10-16T01:12:50;5.03;;;1.43;;
46729;SDS011;32476;50.002;11.854;2022-10-16T01:15:30;1.60;;;1.50;;
46729;SDS011;32476;50.002;11.854;2022-10-16T01:18:13;2.27;;;1.50;;
46729;SDS011;32476;50.002;11.854;2022-10-16T01:20:46;4.47;;;1.40;;
46729;SDS011;32476;50.002;11.854;2022-10-16T01:23:36;1.90;;;1.47;;
46729;SDS011;32476;50.002;11.854;2022-10-16T01:29:23;2.90;;;1.63;;
46729;SDS011;32476;50.002;11.854;2022-10-16T01:32:42;3.03;;;1.67;;
46729;SDS011;32476;50.002;11.854;2022-10-16T01:35:18;1.77;;;1.47;;
46729;SDS011;32476;50.002;11.854;2022-10-16T01:40:43;3.60;;;1.50;;
46729;SDS011;32476;50.002;11.854;2022-10-16T01:43:18;1.90;;;1.30;;
46729;SDS011;32476;50.002;11.854;2022-10-16T01:45:52;1.93;;;1.30;;
46729;SDS011;32476;50.002;11.854;2022-10-16T01:48:18;3.70;;;1.40;;
46729;SDS011;32476;50.002;11.854;2022-10-16T01:53:36;2.17;;;1.40;;
46729;SDS011;32476;50.002;11.854;2022-10-16T01:56:03;5.53;;;1.40;;
46729;SDS011;32476;50.002;11.854;2022-10-16T01:58:34;3.53;;;1.30;;
46729;SDS011;32476;50.002;11.854;2022-10-16T02:01:08;4.00;;;1.53;;
46729;SDS011;32476;50.002;11.854;2022-10-16T02:03:37;1.43;;;1.33;;
46729;SDS011;32476;50.002;11.854;2022-10-16T02:06:09;3.70;;;1.50;;
46729;SDS011;32476;50.002;11.854;2022-10-16T02:08:35;2.57;;;1.73;;
46729;SDS011;32476;50.002;11.854;2022-10-16T02:11:02;3.90;;;1.63;;
46729;SDS011;32476;50.002;11.854;2022-10-16T02:13:33;4.67;;;1.50;;
46729;SDS011;32476;50.002;11.854;2022-10-16T02:16:06;4.30;;;1.40;;
46729;SDS011;32476;50.002;11.854;2022-10-16T02:18:35;3.93;;;1.50;;
46729;SDS011;32476;50.002;11.854;2022-10-16T02:21:13;2.53;;;1.53;;
46729;SDS011;32476;50.002;11.854;2022-10-16T02:29:06;2.90;;;1.40;;
46729;SDS011;32476;50.002;11.854;2022-10-16T02:31:38;3.27;;;1.27;;
46729;SDS011;32476;50.002;11.854;2022-10-16T02:34:11;2.70;;;1.40;;
46729;SDS011;32476;50.002;11.854;2022-10-16T02:36:39;1.77;;;1.10;;
46729;SDS011;32476;50.002;11.854;2022-10-16T02:39:06;4.37;;;1.17;;
46729;SDS011;32476;50.002;11.854;2022-10-16T02:41:34;3.27;;;1.40;;
46729;SDS011;32476;50.002;11.854;2022-10-16T02:44:01;1.50;;;1.20;;
46729;SDS011;32476;50.002;11.854;2022-10-16T02:46:27;3.43;;;2.03;;
46729;SDS011;32476;50.002;11.854;2022-10-16T02:48:54;2.13;;;1.43;;
46729;SDS011;32476;50.002;11.854;2022-10-16T02:51:20;3.80;;;1.50;;
46729;SDS011;32476;50.002;11.854;2022-10-16T02:53:46;2.70;;;1.77;;
46729;SDS011;32476;50.002;11.854;2022-10-16T02:56:13;1.90;;;1.67;;
46729;SDS011;32476;50.002;11.854;2022-10-16T02:58:39;4.13;;;1.87;;
46729;SDS011;32476;50.002;11.854;2022-10-16T03:01:05;5.10;;;1.70;;
46729;SDS011;32476;50.002;11.854;2022-10-16T03:03:33;2.03;;;1.70;;
46729;SDS011;32476;50.002;11.854;2022-10-16T03:05:59;4.20;;;1.93;;
46729;SDS011;32476;50.002;11.854;2022-10-16T03:08:24;5.23;;;1.70;;
46729;SDS011;32476;50.002;11.854;2022-10-16T03:10:52;6.97;;;1.90;;
46729;SDS011;32476;50.002;11.854;2022-10-16T03:13:18;2.13;;;1.60;;
46729;SDS011;32476;50.002;11.854;2022-10-16T03:15:45;1.83;;;1.40;;
46729;SDS011;32476;50.002;11.854;2022-10-16T03:18:13;3.70;;;1.80;;
46729;SDS011;32476;50.002;11.854;2022-10-16T03:20:39;3.83;;;1.63;;
46729;SDS011;32476;50.002;11.854;2022-10-16T03:23:05;4.97;;;1.80;;
46729;SDS011;32476;50.002;11.854;2022-10-16T03:25:34;4.27;;;1.90;;
46729;SDS011;32476;50.002;11.854;2022-10-16T03:28:01;3.13;;;2.10;;
46729;SDS011;32476;50.002;11.854;2022-10-16T03:30:27;5.60;;;2.43;;
46729;SDS011;32476;50.002;11.854;2022-10-16T03:32:54;3.97;;;2.37;;
46729;SDS011;32476;50.002;11.854;2022-10-16T03:35:21;4.37;;;2.87;;
46729;SDS011;32476;50.002;11.854;2022-10-16T03:37:49;6.00;;;2.57;;
46729;SDS011;32476;50.002;11.854;2022-10-16T03:40:17;4.60;;;2.90;;
46729;SDS011;32476;50.002;11.854;2022-10-16T03:42:43;11.03;;;3.20;;
46729;SDS011;32476;50.002;11.854;2022-10-16T03:45:10;5.23;;;3.03;;
46729;SDS011;32476;50.002;11.854;2022-10-16T03:47:38;3.83;;;3.27;;
46729;SDS011;32476;50.002;11.854;2022-10-16T03:50:04;4.97;;;3.00;;
46729;SDS011;32476;50.002;11.854;2022-10-16T03:52:31;4.53;;;3.53;;
46729;SDS011;32476;50.002;11.854;2022-10-16T03:54:59;4.10;;;3.10;;
46729;SDS011;32476;50.002;11.854;2022-10-16T03:57:25;6.23;;;3.27;;
46729;SDS011;32476;50.002;11.854;2022-10-16T03:59:51;5.17;;;3.33;;
46729;SDS011;32476;50.002;11.854;2022-10-16T04:02:18;5.33;;;3.20;;
46729;SDS011;32476;50.002;11.854;2022-10-16T04:04:44;10.10;;;3.10;;
46729;SDS011;32476;50.002;11.854;2022-10-16T04:07:10;3.00;;;2.80;;
46729;SDS011;32476;50.002;11.854;2022-10-16T04:09:38;3.27;;;2.83;;
46729;SDS011;32476;50.002;11.854;2022-10-16T04:12:04;3.00;;;2.70;;
46729;SDS011;32476;50.002;11.854;2022-10-16T04:14:30;5.70;;;4.30;;
46729;SDS011;32476;50.002;11.854;2022-10-16T04:16:57;4.90;;;3.77;;
46729;SDS011;32476;50.002;11.854;2022-10-16T04:19:23;4.40;;;2.40;;
46729;SDS011;32476;50.002;11.854;2022-10-16T04:21:49;5.07;;;2.47;;
46729;SDS011;32476;50.002;11.854;2022-10-16T04:24:16;5.30;;;2.57;;
46729;SDS011;32476;50.002;11.854;2022-10-16T04:26:42;3.60;;;2.47;;
46729;SDS011;32476;50.002;11.854;2022-10-16T04:29:08;4.40;;;2.90;;
46729;SDS011;32476;50.002;11.854;2022-10-16T04:31:36;4.60;;;2.57;;
46729;SDS011;32476;50.002;11.854;2022-10-16T04:34:02;2.77;;;2.00;;
46729;SDS011;32476;50.002;11.854;2022-10-16T04:36:28;4.97;;;2.50;;
46729;SDS011;32476;50.002;11.854;2022-10-16T04:38:55;4.03;;;2.10;;
46729;SDS011;32476;50.002;11.854;2022-10-16T04:41:21;9.30;;;2.13;;
46729;SDS011;32476;50.002;11.854;2022-10-16T04:43:47;3.17;;;2.40;;
46729;SDS011;32476;50.002;11.854;2022-10-16T04:46:14;2.97;;;2.70;;
46729;SDS011;32476;50.002;11.854;2022-10-16T04:48:40;3.03;;;2.60;;
46729;SDS011;32476;50.002;11.854;2022-10-16T04:51:06;3.13;;;2.80;;
46729;SDS011;32476;50.002;11.854;2022-10-16T04:53:34;3.37;;;2.57;;
46729;SDS011;32476;50.002;11.854;2022-10-16T04:56:00;4.80;;;2.53;;
46729;SDS011;32476;50.002;11.854;2022-10-16T04:58:25;2.50;;;2.30;;
46729;SDS011;32476;50.002;11.854;2022-10-16T05:00:53;4.87;;;2.50;;
46729;SDS011;32476;50.002;11.854;2022-10-16T05:03:19;2.43;;;2.23;;
46729;SDS011;32476;50.002;11.854;2022-10-16T05:05:45;3.70;;;2.57;;
46729;SDS011;32476;50.002;11.854;2022-10-16T05:08:14;5.17;;;2.77;;
46729;SDS011;32476;50.002;11.854;2022-10-16T05:10:41;3.73;;;3.23;;
46729;SDS011;32476;50.002;11.854;2022-10-16T05:13:09;3.53;;;2.60;;
46729;SDS011;32476;50.002;11.854;2022-10-16T05:15:37;2.90;;;2.60;;
46729;SDS011;32476;50.002;11.854;2022-10-16T05:18:03;3.87;;;2.73;;
46729;SDS011;32476;50.002;11.854;2022-10-16T05:20:29;4.70;;;3.50;;
46729;SDS011;32476;50.002;11.854;2022-10-16T05:22:57;5.53;;;3.07;;
46729;SDS011;32476;50.002;11.854;2022-10-16T05:25:23;5.27;;;2.80;;
46729;SDS011;32476;50.002;11.854;2022-10-16T05:27:49;6.30;;;2.97;;
46729;SDS011;32476;50.002;11.854;2022-10-16T05:30:17;3.83;;;3.33;;
46729;SDS011;32476;50.002;11.854;2022-10-16T05:32:50;6.03;;;3.07;;
46729;SDS011;32476;50.002;11.854;2022-10-16T05:35:18;3.43;;;3.13;;
46729;SDS011;32476;50.002;11.854;2022-10-16T05:37:44;7.23;;;2.90;;
46729;SDS011;32476;50.002;11.854;2022-10-16T05:40:12;5.27;;;3.03;;
46729;SDS011;32476;50.002;11.854;2022-10-16T05:42:40;3.40;;;3.10;;
46729;SDS011;32476;50.002;11.854;2022-10-16T05:45:06;4.60;;;3.50;;
46729;SDS011;32476;50.002;11.854;2022-10-16T05:47:35;4.40;;;3.03;;
46729;SDS011;32476;50.002;11.854;2022-10-16T05:50:03;3.37;;;2.60;;
46729;SDS011;32476;50.002;11.854;2022-10-16T05:52:29;4.83;;;2.80;;
46729;SDS011;32476;50.002;11.854;2022-10-16T05:54:55;5.83;;;2.30;;
46729;SDS011;32476;50.002;11.854;2022-10-16T05:57:23;2.77;;;2.30;;
46729;SDS011;32476;50.002;11.854;2022-10-16T05:59:49;2.93;;;2.67;;
46729;SDS011;32476;50.002;11.854;2022-10-16T06:02:14;3.83;;;2.13;;
46729;SDS011;32476;50.002;11.854;2022-10-16T06:04:42;2.97;;;2.30;;
46729;SDS011;32476;50.002;11.854;2022-10-16T06:07:08;3.63;;;2.40;;
46729;SDS011;32476;50.002;11.854;2022-10-16T06:09:34;2.67;;;2.10;;
46729;SDS011;32476;50.002;11.854;2022-10-16T06:12:01;2.20;;;2.00;;
46729;SDS011;32476;50.002;11.854;2022-10-16T06:14:27;4.83;;;2.20;;
46729;SDS011;32476;50.002;11.854;2022-10-16T06:16:53;3.90;;;2.60;;
46729;SDS011;32476;50.002;11.854;2022-10-16T06:19:21;2.63;;;2.30;;
46729;SDS011;32476;50.002;11.854;2022-10-16T06:21:48;3.10;;;2.43;;
46729;SDS011;32476;50.002;11.854;2022-10-16T06:24:13;4.43;;;2.97;;
46729;SDS011;32476;50.002;11.854;2022-10-16T06:26:41;2.60;;;2.40;;
46729;SDS011;32476;50.002;11.854;2022-10-16T06:29:07;3.87;;;2.47;;
46729;SDS011;32476;50.002;11.854;2022-10-16T06:31:33;2.87;;;2.53;;
46729;SDS011;32476;50.002;11.854;2022-10-16T06:34:01;3.03;;;2.00;;
46729;SDS011;32476;50.002;11.854;2022-10-16T06:36:29;5.43;;;2.50;;
46729;SDS011;32476;50.002;11.854;2022-10-16T06:38:55;2.60;;;2.40;;
46729;SDS011;32476;50.002;11.854;2022-10-16T06:41:23;3.00;;;1.83;;
46729;SDS011;32476;50.002;11.854;2022-10-16T06:43:49;3.50;;;2.40;;
46729;SDS011;32476;50.002;11.854;2022-10-16T06:46:17;3.60;;;2.07;;
46729;SDS011;32476;50.002;11.854;2022-10-16T06:48:47;4.17;;;2.20;;
46729;SDS011;32476;50.002;11.854;2022-10-16T06:51:14;2.20;;;2.00;;
46729;SDS011;32476;50.002;11.854;2022-10-16T06:53:51;3.90;;;1.97;;
46729;SDS011;32476;50.002;11.854;2022-10-16T06:56:22;2.07;;;1.87;;
46729;SDS011;32476;50.002;11.854;2022-10-16T06:58:52;3.40;;;2.00;;
46729;SDS011;32476;50.002;11.854;2022-10-16T07:01:20;2.57;;;2.07;;
46729;SDS011;32476;50.002;11.854;2022-10-16T07:03:48;4.57;;;2.00;;
46729;SDS011;32476;50.002;11.854;2022-10-16T07:06:17;2.20;;;1.87;;
46729;SDS011;32476;50.002;11.854;2022-10-16T07:08:46;4.20;;;1.90;;
46729;SDS011;32476;50.002;11.854;2022-10-16T07:11:14;3.10;;;1.77;;
46729;SDS011;32476;50.002;11.854;2022-10-16T07:13:47;2.40;;;1.87;;
46729;SDS011;32476;50.002;11.854;2022-10-16T07:16:15;4.27;;;1.90;;
46729;SDS011;32476;50.002;11.854;2022-10-16T07:18:44;6.60;;;2.03;;
46729;SDS011;32476;50.002;11.854;2022-10-16T07:21:17;1.87;;;1.60;;
46729;SDS011;32476;50.002;11.854;2022-10-16T07:23:49;3.17;;;2.00;;
46729;SDS011;32476;50.002;11.854;2022-10-16T07:26:21;2.97;;;2.10;;
46729;SDS011;32476;50.002;11.854;2022-10-16T07:28:48;3.97;;;2.10;;
46729;SDS011;32476;50.002;11.854;2022-10-16T07:31:14;3.03;;;2.40;;
46729;SDS011;32476;50.002;11.854;2022-10-16T07:33:44;3.10;;;2.20;;
46729;SDS011;32476;50.002;11.854;2022-10-16T07:36:12;3.93;;;3.40;;
46729;SDS011;32476;50.002;11.854;2022-10-16T07:38:39;4.77;;;3.90;;
46729;SDS011;32476;50.002;11.854;2022-10-16T07:41:07;3.47;;;2.53;;
46729;SDS011;32476;50.002;11.854;2022-10-16T07:43:36;4.73;;;2.47;;
46729;SDS011;32476;50.002;11.854;2022-10-16T07:46:02;2.70;;;2.17;;
46729;SDS011;32476;50.002;11.854;2022-10-16T07:48:31;5.13;;;2.50;;
46729;SDS011;32476;50.002;11.854;2022-10-16T07:51:01;2.70;;;2.50;;
46729;SDS011;32476;50.002;11.854;2022-10-16T07:53:32;2.90;;;2.60;;
46729;SDS011;32476;50.002;11.854;2022-10-16T07:55:59;2.37;;;2.13;;
46729;SDS011;32476;50.002;11.854;2022-10-16T07:58:28;2.53;;;2.20;;
46729;SDS011;32476;50.002;11.854;2022-10-16T08:01:03;4.03;;;2.37;;
46729;SDS011;32476;50.002;11.854;2022-10-16T08:03:31;2.23;;;1.77;;
46729;SDS011;32476;50.002;11.854;2022-10-16T08:05:59;2.00;;;1.80;;
46729;SDS011;32476;50.002;11.854;2022-10-16T08:08:26;3.27;;;2.10;;
46729;SDS011;32476;50.002;11.854;2022-10-16T08:10:52;2.37;;;2.13;;
46729;SDS011;32476;50.002;11.854;2022-10-16T08:13:20;2.00;;;1.80;;
46729;SDS011;32476;50.002;11.854;2022-10-16T08:15:55;1.77;;;1.60;;
46729;SDS011;32476;50.002;11.854;2022-10-16T08:18:24;2.30;;;2.00;;
46729;SDS011;32476;50.002;11.854;2022-10-16T08:20:57;3.63;;;1.97;;
46729;SDS011;32476;50.002;11.854;2022-10-16T08:23:27;2.90;;;1.80;;
46729;SDS011;32476;50.002;11.854;2022-10-16T08:25:53;3.93;;;1.60;;
46729;SDS011;32476;50.002;11.854;2022-10-16T08:28:21;3.00;;;1.83;;
46729;SDS011;32476;50.002;11.854;2022-10-16T08:30:49;2.60;;;1.63;;
46729;SDS011;32476;50.002;11.854;2022-10-16T08:33:15;3.23;;;1.73;;
46729;SDS011;32476;50.002;11.854;2022-10-16T08:35:41;2.20;;;2.00;;
46729;SDS011;32476;50.002;11.854;2022-10-16T08:38:08;2.37;;;1.70;;
46729;SDS011;32476;50.002;11.854;2022-10-16T08:40:36;2.73;;;1.80;;
46729;SDS011;32476;50.002;11.854;2022-10-16T08:46:04;6.80;;;1.70;;
46729;SDS011;32476;50.002;11.854;2022-10-16T08:49:21;2.30;;;1.10;;
46729;SDS011;32476;50.002;11.854;2022-10-16T08:51:51;2.00;;;1.10;;
46729;SDS011;32476;50.002;11.854;2022-10-16T08:54:31;3.53;;;1.73;;
46729;SDS011;32476;50.002;11.854;2022-10-16T08:57:14;2.97;;;1.57;;
46729;SDS011;32476;50.002;11.854;2022-10-16T08:59:47;3.50;;;1.40;;
46729;SDS011;32476;50.002;11.854;2022-10-16T09:05:41;5.17;;;1.40;;
46729;SDS011;32476;50.002;11.854;2022-10-16T09:08:25;2.03;;;1.47;;
46729;SDS011;32476;50.002;11.854;2022-10-16T09:11:14;1.87;;;1.57;;
46729;SDS011;32476;50.002;11.854;2022-10-16T09:17:40;3.93;;;1.50;;
46729;SDS011;32476;50.002;11.854;2022-10-16T09:20:31;2.30;;;1.30;;
46729;SDS011;32476;50.002;11.854;2022-10-16T09:23:30;2.93;;;1.70;;
46729;SDS011;32476;50.002;11.854;2022-10-16T09:26:01;2.27;;;1.70;;
46729;SDS011;32476;50.002;11.854;2022-10-16T09:28:29;2.73;;;1.87;;
46729;SDS011;32476;50.002;11.854;2022-10-16T09:30:55;6.03;;;1.73;;
46729;SDS011;32476;50.002;11.854;2022-10-16T09:33:28;2.73;;;1.53;;
46729;SDS011;32476;50.002;11.854;2022-10-16T09:36:00;5.90;;;2.10;;
46729;SDS011;32476;50.002;11.854;2022-10-16T09:38:33;2.40;;;1.77;;
46729;SDS011;32476;50.002;11.854;2022-10-16T09:41:02;3.10;;;2.00;;
46729;SDS011;32476;50.002;11.854;2022-10-16T09:43:49;2.13;;;1.90;;
46729;SDS011;32476;50.002;11.854;2022-10-16T09:46:22;2.83;;;1.63;;
46729;SDS011;32476;50.002;11.854;2022-10-16T09:48:54;6.43;;;2.17;;
46729;SDS011;32476;50.002;11.854;2022-10-16T09:53:59;3.17;;;1.53;;
46729;SDS011;32476;50.002;11.854;2022-10-16T09:56:36;3.90;;;2.10;;
46729;SDS011;32476;50.002;11.854;2022-10-16T09:59:11;2.83;;;2.13;;
46729;SDS011;32476;50.002;11.854;2022-10-16T10:01:44;2.53;;;1.90;;
46729;SDS011;32476;50.002;11.854;2022-10-16T10:04:36;2.23;;;1.80;;
46729;SDS011;32476;50.002;11.854;2022-10-16T10:07:44;3.77;;;1.80;;
46729;SDS011;32476;50.002;11.854;2022-10-16T10:10:18;2.40;;;1.90;;
46729;SDS011;32476;50.002;11.854;2022-10-16T10:12:47;4.23;;;2.23;;
46729;SDS011;32476;50.002;11.854;2022-10-16T10:15:15;4.73;;;2.27;;
46729;SDS011;32476;50.002;11.854;2022-10-16T10:17:51;3.92;;;2.22;;
46729;SDS011;32476;50.002;11.854;2022-10-16T10:22:54;3.70;;;2.30;;
46729;SDS011;32476;50.002;11.854;2022-10-16T10:25:25;4.87;;;2.67;;
46729;SDS011;32476;50.002;11.854;2022-10-16T10:28:10;4.03;;;2.20;;
46729;SDS011;32476;50.002;11.854;2022-10-16T10:31:20;3.90;;;2.60;;
46729;SDS011;32476;50.002;11.854;2022-10-16T10:34:21;5.07;;;2.40;;
46729;SDS011;32476;50.002;11.854;2022-10-16T10:43:03;2.60;;;2.23;;
46729;SDS011;32476;50.002;11.854;2022-10-16T10:46:04;4.25;;;2.25;;
46729;SDS011;32476;50.002;11.854;2022-10-16T10:51:39;3.15;;;2.10;;
46729;SDS011;32476;50.002;11.854;2022-10-16T11:12:40;6.20;;;2.40;;
46729;SDS011;32476;50.002;11.854;2022-10-16T11:17:42;2.78;;;2.10;;
46729;SDS011;32476;50.002;11.854;2022-10-16T11:23:05;3.53;;;2.50;;
46729;SDS011;32476;50.002;11.854;2022-10-16T11:25:40;4.45;;;2.70;;
46729;SDS011;32476;50.002;11.854;2022-10-16T11:31:07;6.03;;;2.47;;
46729;SDS011;32476;50.002;11.854;2022-10-16T11:33:51;3.65;;;2.45;;
46729;SDS011;32476;50.002;11.854;2022-10-16T11:39:21;2.70;;;2.10;;
46729;SDS011;32476;50.002;11.854;2022-10-16T11:47:44;2.67;;;2.17;;
46729;SDS011;32476;50.002;11.854;2022-10-16T11:50:34;3.10;;;2.30;;
46729;SDS011;32476;50.002;11.854;2022-10-16T11:55:58;4.55;;;2.00;;
46729;SDS011;32476;50.002;11.854;2022-10-16T12:01:27;4.80;;;1.95;;
46729;SDS011;32476;50.002;11.854;2022-10-16T12:04:05;2.72;;;1.85;;
46729;SDS011;32476;50.002;11.854;2022-10-16T12:06:53;6.07;;;1.90;;
46729;SDS011;32476;50.002;11.854;2022-10-16T12:09:34;6.75;;;1.83;;
46729;SDS011;32476;50.002;11.854;2022-10-16T12:17:54;3.00;;;1.63;;
46729;SDS011;32476;50.002;11.854;2022-10-16T12:20:31;6.05;;;1.90;;
46729;SDS011;32476;50.002;11.854;2022-10-16T12:23:04;2.15;;;1.70;;
46729;SDS011;32476;50.002;11.854;2022-10-16T12:28:26;6.53;;;1.80;;
46729;SDS011;32476;50.002;11.854;2022-10-16T12:31:11;2.83;;;1.52;;
46729;SDS011;32476;50.002;11.854;2022-10-16T12:36:33;5.55;;;1.58;;
46729;SDS011;32476;50.002;11.854;2022-10-16T12:39:01;2.20;;;1.80;;
46729;SDS011;32476;50.002;11.854;2022-10-16T12:41:29;25.85;;;23.00;;
46729;SDS011;32476;50.002;11.854;2022-10-16T12:43:57;3.65;;;2.80;;
46729;SDS011;32476;50.002;11.854;2022-10-16T12:49:04;7.10;;;5.72;;
46729;SDS011;32476;50.002;11.854;2022-10-16T12:51:38;4.85;;;2.17;;
46729;SDS011;32476;50.002;11.854;2022-10-16T13:20:23;5.60;;;3.80;;
46729;SDS011;32476;50.002;11.854;2022-10-16T13:23:17;10.07;;;2.97;;
46729;SDS011;32476;50.002;11.854;2022-10-16T13:26:03;6.30;;;2.88;;
46729;SDS011;32476;50.002;11.854;2022-10-16T13:28:45;6.20;;;2.53;;
46729;SDS011;32476;50.002;11.854;2022-10-16T13:31:22;3.63;;;2.00;;
46729;SDS011;32476;50.002;11.854;2022-10-16T13:33:51;5.97;;;2.35;;
46729;SDS011;32476;50.002;11.854;2022-10-16T13:36:42;2.28;;;1.60;;
46729;SDS011;32476;50.002;11.854;2022-10-16T13:39:24;2.55;;;1.33;;
46729;SDS011;32476;50.002;11.854;2022-10-16T13:42:42;3.00;;;2.10;;
46729;SDS011;32476;50.002;11.854;2022-10-16T13:44:50;3.22;;;1.77;;
46729;SDS011;32476;50.002;11.854;2022-10-16T13:47:21;2.25;;;1.45;;
46729;SDS011;32476;50.002;11.854;2022-10-16T13:50:04;6.72;;;2.00;;
46729;SDS011;32476;50.002;11.854;2022-10-16T13:52:39;2.78;;;1.85;;
46729;SDS011;32476;50.002;11.854;2022-10-16T13:55:17;4.25;;;1.60;;
46729;SDS011;32476;50.002;11.854;2022-10-16T13:57:45;4.10;;;1.77;;
46729;SDS011;32476;50.002;11.854;2022-10-16T14:00:18;2.75;;;1.80;;
46729;SDS011;32476;50.002;11.854;2022-10-16T14:02:51;2.55;;;1.77;;
46729;SDS011;32476;50.002;11.854;2022-10-16T14:05:23;3.15;;;1.20;;
46729;SDS011;32476;50.002;11.854;2022-10-16T14:07:51;3.20;;;1.20;;
46729;SDS011;32476;50.002;11.854;2022-10-16T14:10:23;2.08;;;1.10;;
46729;SDS011;32476;50.002;11.854;2022-10-16T14:12:57;3.60;;;1.60;;
46729;SDS011;32476;50.002;11.854;2022-10-16T14:15:26;3.00;;;1.83;;
46729;SDS011;32476;50.002;11.854;2022-10-16T14:17:56;2.50;;;1.50;;
46729;SDS011;32476;50.002;11.854;2022-10-16T14:20:28;1.55;;;1.40;;
46729;SDS011;32476;50.002;11.854;2022-10-16T14:22:59;1.52;;;1.20;;
46729;SDS011;32476;50.002;11.854;2022-10-16T14:25:41;4.03;;;1.48;;
46729;SDS011;32476;50.002;11.854;2022-10-16T14:28:20;3.10;;;1.40;;
46729;SDS011;32476;50.002;11.854;2022-10-16T14:30:52;3.40;;;1.90;;
46729;SDS011;32476;50.002;11.854;2022-10-16T14:35:59;16.25;;;6.10;;
46729;SDS011;32476;50.002;11.854;2022-10-16T14:38:39;6.05;;;2.58;;
46729;SDS011;32476;50.002;11.854;2022-10-16T14:41:14;2.97;;;1.75;;
46729;SDS011;32476;50.002;11.854;2022-10-16T14:43:42;7.82;;;2.67;;
46729;SDS011;32476;50.002;11.854;2022-10-16T14:46:13;5.15;;;1.77;;
46729;SDS011;32476;50.002;11.854;2022-10-16T14:48:46;8.20;;;2.00;;
46729;SDS011;32476;50.002;11.854;2022-10-16T14:51:15;3.72;;;2.17;;
46729;SDS011;32476;50.002;11.854;2022-10-16T14:53:44;6.10;;;2.13;;
46729;SDS011;32476;50.002;11.854;2022-10-16T14:56:16;4.72;;;2.25;;
46729;SDS011;32476;50.002;11.854;2022-10-16T14:58:51;4.93;;;1.85;;
46729;SDS011;32476;50.002;11.854;2022-10-16T15:01:18;3.53;;;1.88;;
46729;SDS011;32476;50.002;11.854;2022-10-16T15:03:45;2.83;;;1.60;;
46729;SDS011;32476;50.002;11.854;2022-10-16T15:06:16;3.92;;;1.63;;
46729;SDS011;32476;50.002;11.854;2022-10-16T15:08:42;9.05;;;1.83;;
46729;SDS011;32476;50.002;11.854;2022-10-16T15:11:26;3.22;;;1.83;;
46729;SDS011;32476;50.002;11.854;2022-10-16T15:13:54;2.55;;;1.67;;
46729;SDS011;32476;50.002;11.854;2022-10-16T15:16:19;3.75;;;1.60;;
46729;SDS011;32476;50.002;11.854;2022-10-16T15:18:45;5.22;;;2.53;;
46729;SDS011;32476;50.002;11.854;2022-10-16T15:21:20;7.75;;;4.78;;
46729;SDS011;32476;50.002;11.854;2022-10-16T15:23:51;9.77;;;5.40;;
46729;SDS011;32476;50.002;11.854;2022-10-16T15:26:19;4.90;;;2.95;;
46729;SDS011;32476;50.002;11.854;2022-10-16T15:28:45;3.95;;;2.20;;
46729;SDS011;32476;50.002;11.854;2022-10-16T15:31:10;4.25;;;1.83;;
46729;SDS011;32476;50.002;11.854;2022-10-16T15:33:38;7.00;;;2.28;;
46729;SDS011;32476;50.002;11.854;2022-10-16T15:36:04;4.80;;;1.95;;
46729;SDS011;32476;50.002;11.854;2022-10-16T15:38:30;4.80;;;2.35;;
46729;SDS011;32476;50.002;11.854;2022-10-16T15:40:58;4.93;;;1.98;;
46729;SDS011;32476;50.002;11.854;2022-10-16T15:43:23;3.75;;;1.88;;
46729;SDS011;32476;50.002;11.854;2022-10-16T15:46:06;4.50;;;1.83;;
46729;SDS011;32476;50.002;11.854;2022-10-16T15:48:37;7.78;;;2.60;;
46729;SDS011;32476;50.002;11.854;2022-10-16T15:51:04;6.05;;;2.33;;
46729;SDS011;32476;50.002;11.854;2022-10-16T15:53:32;10.65;;;7.20;;
46729;SDS011;32476;50.002;11.854;2022-10-16T15:56:04;16.10;;;11.77;;
46729;SDS011;32476;50.002;11.854;2022-10-16T15:58:32;17.65;;;11.30;;
46729;SDS011;32476;50.002;11.854;2022-10-16T16:00:58;38.20;;;26.70;;
46729;SDS011;32476;50.002;11.854;2022-10-16T16:03:28;32.72;;;22.10;;
46729;SDS011;32476;50.002;11.854;2022-10-16T16:05:55;13.00;;;6.28;;
46729;SDS011;32476;50.002;11.854;2022-10-16T16:08:22;13.02;;;7.40;;
46729;SDS011;32476;50.002;11.854;2022-10-16T16:13:36;34.63;;;21.17;;
46729;SDS011;32476;50.002;11.854;2022-10-16T16:16:05;53.42;;;37.13;;
46729;SDS011;32476;50.002;11.854;2022-10-16T16:18:33;35.93;;;23.47;;
46729;SDS011;32476;50.002;11.854;2022-10-16T16:21:00;25.00;;;16.33;;
46729;SDS011;32476;50.002;11.854;2022-10-16T16:23:27;31.23;;;21.60;;
46729;SDS011;32476;50.002;11.854;2022-10-16T16:28:50;15.23;;;7.20;;
46729;SDS011;32476;50.002;11.854;2022-10-16T16:31:17;13.80;;;8.02;;
46729;SDS011;32476;50.002;11.854;2022-10-16T16:33:43;40.77;;;24.97;;
46729;SDS011;32476;50.002;11.854;2022-10-16T16:36:11;19.30;;;11.77;;
46729;SDS011;32476;50.002;11.854;2022-10-16T16:38:37;14.63;;;11.17;;
46729;SDS011;32476;50.002;11.854;2022-10-16T16:43:47;14.40;;;7.83;;
46729;SDS011;32476;50.002;11.854;2022-10-16T16:46:14;28.90;;;19.53;;
46729;SDS011;32476;50.002;11.854;2022-10-16T16:48:40;68.97;;;43.03;;
46729;SDS011;32476;50.002;11.854;2022-10-16T16:51:12;16.90;;;9.17;;
46729;SDS011;32476;50.002;11.854;2022-10-16T16:53:45;11.57;;;8.60;;
46729;SDS011;32476;50.002;11.854;2022-10-16T16:56:15;20.97;;;12.43;;
46729;SDS011;32476;50.002;11.854;2022-10-16T16:58:44;19.10;;;12.87;;
46729;SDS011;32476;50.002;11.854;2022-10-16T17:01:12;29.63;;;18.20;;
46729;SDS011;32476;50.002;11.854;2022-10-16T17:03:41;14.60;;;10.03;;
46729;SDS011;32476;50.002;11.854;2022-10-16T17:06:12;24.53;;;13.87;;
46729;SDS011;32476;50.002;11.854;2022-10-16T17:08:43;14.87;;;11.00;;
46729;SDS011;32476;50.002;11.854;2022-10-16T17:11:13;14.27;;;9.23;;
46729;SDS011;32476;50.002;11.854;2022-10-16T17:13:44;16.87;;;11.13;;